Latest Weather Observations for Burketown Airport

IDQ60801

Issued at 11:35 am EST Tuesday 2 September 2014 (issued every 30 minutes, with the page automatically refreshed every 10 minutes)

About weather observations | Map of weather stations | Latest weather observations for QLD | Other Formats
Station Details ID: 029077 Name: BURKETOWN AIRPORT Lat: -17.75 Lon: 139.54 Height: 5.7 m
Data from the previous 72 hours. | See also: Recent months at Burketown Airport
Date/Time
EST
Temp
°C
App
Temp
°C
Dew
Point
Rel
Hum
%
Delta-T
°C
Wind Press
QNH
hPa
Press
MSL
hPa
Rain
since 9 am
mm
Dir
 
Spd
km/h
Gust
km/h
Spd
kts
Gust
kts
02/11:30am 33.2 27.9 2.1 14 15.7 SE 19 28 10 15 1016.0 - 0.0
02/11:00am 32.4 28.0 2.5 15 15.1 ESE 15 24 8 13 1016.3 - 0.0
02/10:30am 31.9 28.1 3.8 17 14.5 SSE 13 22 7 12 1016.6 - 0.0
02/10:00am 29.5 25.8 4.2 20 12.9 S 13 17 7 9 1016.8 - 0.0
02/09:30am 27.5 25.1 6.8 27 10.9 SSW 9 13 5 7 1016.9 - 0.0
02/09:00am 25.3 22.5 8.7 35 8.9 SSW 13 15 7 8 1016.8 1016.7 0.0
02/08:30am 22.2 20.0 9.4 44 6.9 SSW 11 15 6 8 1016.8 - 0.0
02/08:00am 18.8 16.0 8.7 52 5.2 S 13 17 7 9 1016.6 - 0.0
02/07:30am 15.7 13.8 8.9 64 3.5 S 9 11 5 6 1016.3 - 0.0
02/07:00am 13.9 11.9 8.5 70 2.7 S 9 11 5 6 1016.2 - 0.0
02/06:30am 13.3 10.8 9.7 79 1.8 S 13 15 7 8 1016.0 - 0.0
02/06:00am 13.2 11.3 10.4 83 1.5 S 11 13 6 7 1015.6 1015.5 0.0
02/05:30am 13.6 12.5 10.6 82 1.6 S 7 7 4 4 1015.5 - 0.0
02/05:00am 14.2 13.4 11.0 81 1.7 SSE 6 7 3 4 1015.3 - 0.0
02/04:30am 14.7 13.7 10.9 78 2.0 SSW 7 9 4 5 1015.1 - 0.0
02/04:00am 15.6 14.7 12.7 83 1.6 SW 9 13 5 7 1015.1 - 0.0
02/03:30am 15.2 13.4 12.1 82 1.7 WSW 13 17 7 9 1015.0 - 0.0
02/03:00am 15.6 13.3 14.0 90 0.9 WSW 19 28 10 15 1015.2 1015.1 0.0
02/02:30am 14.9 13.6 12.6 86 1.3 W 11 11 6 6 1015.1 - 0.0
02/02:00am 15.2 14.2 13.4 89 1.0 WSW 11 13 6 7 1015.1 - 0.0
02/01:30am 14.8 13.7 13.2 90 0.9 W 11 13 6 7 1015.4 - 0.0
02/01:00am 14.8 13.7 13.2 90 0.9 WSW 11 11 6 6 1015.6 - 0.0
02/12:30am 14.9 13.4 13.1 89 1.0 W 13 15 7 8 1015.5 - 0.0
02/12:00am 15.2 13.8 13.4 89 1.0 W 13 15 7 8 1015.3 1015.2 0.0
 
Date/Time
EST
Temp
°C
App
Temp
°C
Dew
Point
Rel
Hum
%
Delta-T
°C
Wind Press
QNH
hPa
Press
MSL
hPa
Rain
since 9 am
mm
Dir
 
Spd
km/h
Gust
km/h
Spd
kts
Gust
kts
01/11:30pm 15.1 13.0 12.4 84 1.5 WNW 15 17 8 9 1015.2 - 0.0
01/11:00pm 15.5 15.7 13.0 85 1.4 N 4 7 2 4 1014.9 - 0.0
01/10:30pm 17.2 17.6 15.4 89 1.1 NNE 7 11 4 6 1014.9 - 0.0
01/10:00pm 17.3 16.5 13.0 76 2.4 N 9 11 5 6 1014.8 - 0.0
01/09:30pm 18.6 18.4 15.7 83 1.7 NNE 11 11 6 6 1014.6 - 0.0
01/09:00pm 19.0 18.3 14.3 74 2.7 NE 11 15 6 8 1014.4 1014.3 0.0
01/08:30pm 20.0 19.6 13.0 64 4.0 NNE 7 11 4 6 1014.1 - 0.0
01/08:00pm 20.7 19.4 12.4 59 4.7 NNE 11 13 6 7 1013.8 - 0.0
01/07:30pm 21.3 19.5 10.8 51 5.8 NNE 11 13 6 7 1013.4 - 0.0
01/07:00pm 23.1 21.0 9.8 43 7.2 NNE 11 13 6 7 1013.3 - 0.0
01/06:30pm 25.4 22.4 9.3 36 8.8 NNE 15 20 8 11 1013.2 - 0.0
01/06:00pm 28.5 24.2 5.4 23 12.0 NNE 17 20 9 11 1012.8 1012.7 0.0
01/05:30pm 29.7 25.7 5.1 21 12.8 NNE 15 22 8 12 1012.5 - 0.0
01/05:00pm 30.2 25.4 5.5 21 13.0 NNE 20 26 11 14 1012.4 - 0.0
01/04:30pm 30.7 25.3 4.4 19 13.6 NNE 22 30 12 16 1012.2 - 0.0
01/04:00pm 31.6 26.0 5.2 19 13.9 NNE 24 32 13 17 1012.2 - 0.0
01/03:30pm 31.2 25.7 7.6 23 12.9 NNE 26 35 14 19 1012.3 - 0.0
01/03:00pm 32.0 27.6 4.7 18 14.3 N 17 28 9 15 1012.6 1012.5 0.0
01/02:30pm 31.9 26.9 4.6 18 14.3 NNE 20 33 11 18 1012.9 - 0.0
01/02:00pm 32.0 27.8 3.9 17 14.5 N 15 20 8 11 1013.4 - 0.0
01/01:30pm 32.1 27.9 4.0 17 14.6 ENE 15 24 8 13 1014.0 - 0.0
01/01:00pm 31.7 26.6 2.8 16 14.6 NNE 19 26 10 14 1014.5 - 0.0
01/12:30pm 32.1 27.0 3.1 16 14.8 NE 19 33 10 18 1015.0 - 0.0
01/12:00pm 31.1 25.2 1.4 15 14.6 ENE 22 30 12 16 1015.4 1015.3 0.0
01/11:30am 31.7 27.5 1.9 15 14.9 ESE 13 20 7 11 1016.1 - 0.0
01/11:00am 30.1 25.1 1.5 16 14.0 ESE 17 24 9 13 1016.6 - 0.0
01/10:30am 30.2 25.2 1.6 16 14.1 SE 17 24 9 13 1016.8 - 0.0
01/10:00am 29.2 24.6 1.7 17 13.4 SE 15 19 8 10 1016.9 - 0.0
01/09:30am 27.0 23.1 3.5 22 11.7 SSE 13 19 7 10 1016.9 - 0.0
01/09:00am 24.5 21.1 5.8 30 9.5 S 13 17 7 9 1016.8 1016.7 0.0
01/08:30am 21.9 18.6 6.6 37 7.8 S 13 15 7 8 1016.4 - 0.0
01/08:00am 19.5 16.4 7.3 45 6.2 SSW 13 15 7 8 1016.0 - 0.0
01/07:30am 17.0 14.5 8.4 57 4.4 SSW 11 13 6 7 1015.7 - 0.0
01/07:00am 14.5 12.3 9.5 72 2.6 SSW 11 15 6 8 1015.5 - 0.0
01/06:30am 13.7 11.3 10.1 79 1.9 SW 13 15 7 8 1015.1 - 0.0
01/06:00am 13.4 11.5 10.4 82 1.6 WSW 11 19 6 10 1014.5 1014.4 0.0
01/05:30am 13.6 12.7 11.5 87 1.1 WSW 7 9 4 5 1014.0 - 0.0
01/05:00am 13.4 12.1 11.3 87 1.1 WSW 9 11 5 6 1013.9 - 0.0
01/04:30am 12.7 11.3 10.8 88 1.0 W 9 13 5 7 1014.0 - 0.0
01/04:00am 12.7 11.2 10.6 87 1.1 W 9 11 5 6 1013.6 - 0.0
01/03:30am 13.3 12.4 11.4 88 1.0 W 7 9 4 5 1013.5 - 0.0
01/03:00am 14.4 13.9 12.8 90 0.9 SW 7 9 4 5 1013.6 1013.5 0.0
01/02:30am 14.0 13.4 12.4 90 0.9 NNE 7 11 4 6 1013.7 - 0.0
01/02:00am 14.6 13.5 13.1 91 0.8 NNE 11 15 6 8 1013.8 - 0.0
01/01:30am 15.6 15.1 12.7 83 1.6 SSE 7 9 4 5 1013.7 - 0.0
01/01:00am 16.4 15.9 12.8 79 2.0 SSW 7 11 4 6 1013.7 - 0.0
01/12:30am 16.6 16.4 13.5 82 1.7 SW 7 9 4 5 1013.8 - 0.0
01/12:00am 15.8 14.8 13.5 86 1.3 W 11 13 6 7 1013.8 1013.7 0.0
 
Date/Time
EST
Temp
°C
App
Temp
°C
Dew
Point
Rel
Hum
%
Delta-T
°C
Wind Press
QNH
hPa
Press
MSL
hPa
Rain
since 9 am
mm
Dir
 
Spd
km/h
Gust
km/h
Spd
kts
Gust
kts
31/11:30pm 16.0 15.2 12.9 82 1.7 W 9 13 5 7 1013.8 - 0.0
31/11:00pm 16.2 15.0 12.7 80 1.9 W 11 13 6 7 1013.8 - 0.0
31/10:30pm 16.3 15.3 12.3 77 2.2 WNW 9 9 5 5 1014.0 - 0.0
31/10:00pm 17.5 17.1 13.0 75 2.5 NW 7 9 4 5 1014.1 - 0.0
31/09:30pm 18.0 17.9 13.9 77 2.3 N 7 7 4 4 1014.0 - 0.0
31/09:00pm 18.5 18.6 12.7 69 3.2 NNW 4 7 2 4 1013.9 1013.8 0.0
31/08:30pm 19.1 18.6 12.8 67 3.5 NNW 7 9 4 5 1013.8 - 0.0
31/08:00pm 20.0 19.8 13.7 67 3.6 N 7 9 4 5 1013.6 - 0.0
31/07:30pm 20.5 19.4 13.2 63 4.2 N 11 13 6 7 1013.1 - 0.0
31/07:00pm 22.1 21.1 13.5 58 5.0 N 11 13 6 7 1012.9 - 0.0
31/06:30pm 24.0 22.2 13.2 50 6.3 N 15 19 8 10 1012.6 - 0.0
31/06:00pm 25.8 22.8 12.6 44 7.6 NNE 20 24 11 13 1012.1 1012.0 0.0
31/05:30pm 27.3 24.0 10.9 36 9.3 NNE 19 26 10 14 1011.8 - 0.0
31/05:00pm 28.3 24.1 9.6 31 10.4 NNE 22 28 12 15 1011.6 - 0.0
31/04:30pm 29.3 24.8 9.9 30 10.9 NNE 24 32 13 17 1011.5 - 0.0
31/04:00pm 29.6 24.8 7.5 25 12.0 NNE 22 32 12 17 1011.5 - 0.0
31/03:30pm 30.5 26.3 8.3 25 12.2 NNE 20 30 11 16 1011.7 - 0.0
31/03:00pm 30.6 26.1 7.1 23 12.7 NE 20 30 11 16 1011.8 1011.7 0.0
31/02:30pm 30.9 26.3 8.0 24 12.6 NE 22 32 12 17 1012.3 - 0.0
31/02:00pm 30.2 25.9 8.0 25 12.2 NNE 20 32 11 17 1012.9 - 0.0
31/01:30pm 30.5 25.6 7.0 23 12.7 NE 22 32 12 17 1013.5 - 0.0
31/01:00pm 30.0 25.2 7.2 24 12.3 NE 22 35 12 19 1013.8 - 0.0
31/12:30pm 30.5 25.6 5.0 20 13.3 ENE 20 35 11 19 1014.1 - 0.0
31/12:00pm 30.7 25.7 1.1 15 14.5 ENE 17 26 9 14 1014.5 1014.4 0.0
31/11:30am 31.2 26.5 3.3 17 14.2 E 17 26 9 14 1015.0 - 0.0
31/11:00am 29.7 25.3 2.9 18 13.4 ESE 15 20 8 11 1015.5 - 0.0
31/10:30am 28.2 23.5 3.1 20 12.5 SE 17 22 9 12 1015.9 - 0.0
31/10:00am 27.7 22.7 3.4 21 12.1 SSE 19 24 10 13 1016.0 - 0.0
31/09:30am 25.8 20.8 3.7 24 10.9 SSE 19 22 10 12 1016.1 - 0.0
31/09:00am 24.1 19.2 5.0 29 9.6 SSE 20 26 11 14 1016.0 1015.9 0.0
31/08:30am 21.9 18.9 9.4 45 6.7 S 15 20 8 11 1015.9 - 0.0
31/08:00am 18.7 17.3 12.2 66 3.6 S 11 15 6 8 1015.8 - 0.0
31/07:30am 17.1 16.3 12.8 76 2.4 S 9 11 5 6 1015.5 - 0.0
31/07:00am 15.4 14.1 12.5 83 1.6 S 11 11 6 6 1015.2 - 0.0
31/06:30am 15.9 14.2 12.6 81 1.8 S 13 15 7 8 1014.9 - 0.0
31/06:00am 15.8 14.4 13.3 85 1.4 SSW 13 15 7 8 1014.6 1014.5 0.0
31/05:30am 16.4 14.7 13.5 83 1.6 SSW 15 17 8 9 1014.5 - 0.0
31/05:00am 15.8 15.0 14.0 89 1.0 SSW 11 15 6 8 1014.4 - 0.0
31/04:30am 15.8 15.9 14.0 89 1.0 SSW 6 9 3 5 1014.4 - 0.0
31/04:00am 15.3 14.9 13.1 87 1.2 S 7 11 4 6 1014.2 - 0.0
31/03:30am 15.6 15.3 13.3 86 1.3 S 7 9 4 5 1014.1 - 0.0
31/03:00am 16.1 15.6 13.8 86 1.3 S 9 11 5 6 1014.2 1014.1 0.0
31/02:30am 15.8 14.8 13.3 85 1.4 S 11 13 6 7 1014.4 - 0.0
31/02:00am 16.6 16.7 14.4 87 1.3 S 7 9 4 5 1014.4 - 0.0
31/01:30am 16.5 15.6 13.8 84 1.5 SSW 11 13 6 7 1014.5 - 0.0
31/01:00am 16.4 15.7 13.3 82 1.7 SSW 9 11 5 6 1014.9 - 0.0
31/12:30am 16.3 15.1 12.8 80 1.9 SSW 11 13 6 7 1015.1 - 0.0
31/12:00am 17.6 17.8 14.3 81 1.9 S 6 9 3 5 1015.3 1015.2 0.0
 
Date/Time
EST
Temp
°C
App
Temp
°C
Dew
Point
Rel
Hum
%
Delta-T
°C
Wind Press
QNH
hPa
Press
MSL
hPa
Rain
since 9 am
mm
Dir
 
Spd
km/h
Gust
km/h
Spd
kts
Gust
kts
30/11:30pm 17.1 17.3 14.2 83 1.7 W 6 11 3 6 1014.9 - 0.0
30/11:00pm 17.6 17.8 14.3 81 1.9 SW 6 13 3 7 1015.0 - 0.0
30/10:30pm 17.6 16.9 14.3 81 1.9 W 11 13 6 7 1014.9 - 0.0
30/10:00pm 17.4 17.2 13.1 76 2.4 NNW 6 11 3 6 1015.0 - 0.0
30/09:30pm 17.9 17.4 12.8 72 2.8 NNW 7 11 4 6 1014.9 - 0.0
30/09:00pm 19.1 19.4 13.5 70 3.2 N 4 9 2 5 1014.7 1014.6 0.0
30/08:30pm 19.3 18.2 13.2 68 3.5 N 11 13 6 7 1014.6 - 0.0
30/08:00pm 19.8 18.7 13.0 65 3.8 N 11 13 6 7 1014.3 - 0.0
30/07:30pm 20.8 19.8 13.3 62 4.3 N 11 15 6 8 1014.1 - 0.0
30/07:00pm 22.2 20.7 13.0 56 5.3 N 13 15 7 8 1013.9 - 0.0
30/06:30pm 24.1 22.2 13.0 50 6.4 N 15 20 8 11 1013.6 - 0.0
30/06:00pm 25.6 23.0 13.1 46 7.3 N 19 24 10 13 1013.4 1013.3 0.0
30/05:30pm 26.6 23.6 11.9 40 8.4 N 19 24 10 13 1013.5 - 0.0
30/05:00pm 27.2 24.0 12.0 38 8.8 N 20 30 11 16 1013.4 - 0.0
30/04:30pm 28.0 24.9 11.5 35 9.5 N 19 44 10 24 1013.5 - 0.0
30/04:00pm 28.1 24.9 12.0 36 9.3 NNE 20 30 11 16 1013.6 - 0.0
30/03:30pm 28.4 25.2 11.9 36 9.5 NNE 20 33 11 18 1013.9 - 0.0
30/03:00pm 28.2 24.6 11.7 36 9.5 NNE 22 32 12 17 1014.2 1014.1 0.0
30/02:30pm 28.7 25.6 12.2 36 9.6 N 20 30 11 16 1014.6 - 0.0
30/02:00pm 28.6 24.3 12.1 36 9.6 NNE 26 32 14 17 1015.1 - 0.0
30/01:30pm 27.8 24.1 11.4 36 9.4 NNE 22 33 12 18 1015.5 - 0.0
30/01:00pm 28.8 25.6 11.8 35 9.8 NNE 20 30 11 16 1016.0 - 0.0
30/12:30pm 28.0 24.9 11.5 35 9.5 ENE 19 28 10 15 1016.5 - 0.0
30/12:00pm 28.3 24.6 11.4 35 9.7 NNE 22 33 12 18 1016.8 1016.7 0.0

Other Formats:

Comma delimited format used in spreadsheet applications
http://www.bom.gov.au/fwo/IDQ60801/IDQ60801.94260.axf

JavaScript Object Notation format (JSON) in row-major order
http://www.bom.gov.au/fwo/IDQ60801/IDQ60801.94260.json